Time;durP1;ratioP1;P1;durP2;ratioP2;P2;SDS_P1;SDS_P2;PMS_P1;PMS_P2;Temp;Humidity;BMP_temperature;BMP_pressure;BME280_temperature;BME280_humidity;BME280_pressure;Samples;Min_cycle;Max_cycle;Signal;HPM_P1;HPM_P2
2022/12/17 13:06:32;;;;;;;11.93;9.33;;;;;;;;;;5031572;28;20182;-76
2022/12/17 13:09:24;;;;;;;13.53;9.77;;;;;;;;;;5013898;28;20175;-77
2022/12/17 13:11:55;;;;;;;10.00;7.57;;;;;;;;;;5024794;28;20192;-77
2022/12/17 13:14:23;;;;;;;14.27;10.10;;;;;;;;;;5023610;28;20184;-76
2022/12/17 13:16:51;;;;;;;14.67;10.10;;;;;;;;;;5012707;28;20175;-76
2022/12/17 13:19:31;;;;;;;15.60;11.80;;;;;;;;;;5002924;28;20180;-76
2022/12/17 13:22:16;;;;;;;13.83;10.63;;;;;;;;;;5030973;28;20212;-77
2022/12/17 13:24:42;;;;;;;15.80;10.53;;;;;;;;;;5013944;28;20184;-76
2022/12/17 13:27:26;;;;;;;14.37;10.03;;;;;;;;;;5010557;28;20179;-77
2022/12/17 13:29:51;;;;;;;16.40;11.53;;;;;;;;;;5011357;28;20180;-76
2022/12/17 13:32:20;;;;;;;16.93;9.73;;;;;;;;;;5014292;28;20237;-76
2022/12/17 13:35:00;;;;;;;14.17;9.10;;;;;;;;;;5027983;28;20254;-76
2022/12/17 13:37:39;;;;;;;13.37;9.50;;;;;;;;;;5048603;28;20205;-76
2022/12/17 13:40:14;;;;;;;14.83;9.97;;;;;;;;;;5038574;28;20180;-76
2022/12/17 13:42:39;;;;;;;11.87;8.30;;;;;;;;;;5041279;28;20212;-76
2022/12/17 13:45:04;;;;;;;10.80;8.00;;;;;;;;;;5064943;28;20190;-76
2022/12/17 13:47:31;;;;;;;11.83;8.93;;;;;;;;;;5044379;28;20179;-76
2022/12/17 13:49:58;;;;;;;15.20;8.97;;;;;;;;;;5048584;28;20174;-76
2022/12/17 13:52:24;;;;;;;12.00;9.40;;;;;;;;;;5046539;28;20184;-76
2022/12/17 13:54:49;;;;;;;13.87;8.27;;;;;;;;;;5055367;28;20212;-76
2022/12/17 13:57:16;;;;;;;12.27;8.80;;;;;;;;;;5036919;28;20210;-76
2022/12/17 13:59:55;;;;;;;13.13;8.80;;;;;;;;;;5047198;28;20208;-76
2022/12/17 14:02:22;;;;;;;13.37;9.43;;;;;;;;;;5040314;28;20211;-76
2022/12/17 14:04:50;;;;;;;12.87;9.60;;;;;;;;;;5051621;28;20185;-76
2022/12/17 14:07:15;;;;;;;16.40;10.50;;;;;;;;;;5047402;28;20196;-77
2022/12/17 14:09:42;;;;;;;17.27;10.07;;;;;;;;;;5051282;28;20176;-77
2022/12/17 14:12:22;;;;;;;17.27;10.30;;;;;;;;;;5043791;28;20230;-76
2022/12/17 14:14:49;;;;;;;13.70;11.00;;;;;;;;;;5041454;28;20185;-76
2022/12/17 14:17:19;;;;;;;14.07;10.67;;;;;;;;;;5037970;28;20314;-76
2022/12/17 14:19:45;;;;;;;15.50;10.90;;;;;;;;;;5044788;28;20203;-76
2022/12/17 14:22:17;;;;;;;14.93;10.50;;;;;;;;;;5046800;28;20212;-76
2022/12/17 14:24:42;;;;;;;14.00;10.30;;;;;;;;;;5038876;28;20315;-76
2022/12/17 14:27:31;;;;;;;18.73;11.23;;;;;;;;;;5044615;28;20267;-77
2022/12/17 14:29:56;;;;;;;17.10;10.87;;;;;;;;;;5042799;28;20177;-76
2022/12/17 14:32:24;;;;;;;15.20;11.17;;;;;;;;;;5048437;28;20176;-76
2022/12/17 14:34:49;;;;;;;15.33;10.83;;;;;;;;;;5049202;28;20301;-76
2022/12/17 14:37:16;;;;;;;23.33;12.53;;;;;;;;;;5046670;28;20185;-77
2022/12/17 14:39:42;;;;;;;20.23;12.47;;;;;;;;;;5038122;28;20181;-76
2022/12/17 14:42:24;;;;;;;16.63;12.70;;;;;;;;;;5048196;28;20235;-76
2022/12/17 14:44:54;;;;;;;18.10;13.37;;;;;;;;;;5047683;28;20183;-76
2022/12/17 14:47:22;;;;;;;23.83;12.87;;;;;;;;;;5047553;28;20177;-77
2022/12/17 14:50:08;;;;;;;19.87;13.40;;;;;;;;;;5049134;28;20187;-77
2022/12/17 14:52:36;;;;;;;19.67;13.90;;;;;;;;;;5036612;28;20287;-76
2022/12/17 14:55:20;;;;;;;22.73;14.53;;;;;;;;;;5037370;28;20235;-76
2022/12/17 14:57:45;;;;;;;19.00;13.57;;;;;;;;;;5060948;28;20176;-77
2022/12/17 15:00:11;;;;;;;21.30;16.07;;;;;;;;;;5043627;28;20212;-76
2022/12/17 15:02:37;;;;;;;21.27;15.90;;;;;;;;;;5047086;28;20210;-76
2022/12/17 15:05:02;;;;;;;30.83;26.50;;;;;;;;;;5046050;28;20180;-76
2022/12/17 15:07:29;;;;;;;23.00;16.93;;;;;;;;;;5049625;28;20346;-76
2022/12/17 15:09:54;;;;;;;23.70;16.03;;;;;;;;;;5056008;28;20180;-76
2022/12/17 15:12:20;;;;;;;33.77;25.10;;;;;;;;;;5045904;28;20191;-76
2022/12/17 15:14:45;;;;;;;28.07;20.40;;;;;;;;;;5044056;28;20201;-77
2022/12/17 15:17:10;;;;;;;21.60;16.67;;;;;;;;;;5046361;28;20207;-76
2022/12/17 15:19:36;;;;;;;19.13;12.60;;;;;;;;;;5046405;28;20265;-76
2022/12/17 15:22:02;;;;;;;18.50;13.10;;;;;;;;;;5042040;28;20195;-77
2022/12/17 15:24:27;;;;;;;21.23;15.03;;;;;;;;;;5044452;28;20171;-77
2022/12/17 15:26:52;;;;;;;22.70;16.00;;;;;;;;;;5048248;28;20182;-76
2022/12/17 15:29:18;;;;;;;27.10;18.27;;;;;;;;;;5049161;28;20432;-77
2022/12/17 15:31:43;;;;;;;22.07;14.93;;;;;;;;;;5041653;28;20258;-77
2022/12/17 15:34:09;;;;;;;17.90;12.80;;;;;;;;;;5030477;28;20223;-77
2022/12/17 15:36:35;;;;;;;18.83;13.70;;;;;;;;;;5010457;28;20252;-77
2022/12/17 15:39:00;;;;;;;19.33;13.80;;;;;;;;;;5020566;28;20191;-77
2022/12/17 15:44:09;;;;;;;18.93;12.87;;;;;;;;;;5028219;28;20201;-77
2022/12/17 15:46:34;;;;;;;23.60;14.30;;;;;;;;;;5027442;28;20176;-76
2022/12/17 15:48:59;;;;;;;18.47;12.97;;;;;;;;;;5012745;28;20224;-77
2022/12/17 15:51:24;;;;;;;18.03;14.00;;;;;;;;;;5013709;28;20256;-77
2022/12/17 15:53:50;;;;;;;24.27;15.43;;;;;;;;;;5013236;28;20191;-77
2022/12/17 15:56:18;;;;;;;20.70;15.80;;;;;;;;;;5010639;28;20293;-77
2022/12/17 15:58:43;;;;;;;21.77;16.07;;;;;;;;;;5020221;28;20190;-77
2022/12/17 16:01:08;;;;;;;19.33;13.97;;;;;;;;;;5026352;28;20195;-77
2022/12/17 16:03:34;;;;;;;27.33;18.73;;;;;;;;;;5010899;28;20180;-77
2022/12/17 16:06:00;;;;;;;30.03;18.33;;;;;;;;;;5010793;28;20205;-77
2022/12/17 16:08:25;;;;;;;26.47;17.73;;;;;;;;;;5007953;28;20282;-77
2022/12/17 16:10:50;;;;;;;26.27;17.23;;;;;;;;;;5008561;28;20225;-77
2022/12/17 16:13:16;;;;;;;27.20;15.70;;;;;;;;;;5007379;28;20190;-77
2022/12/17 16:15:41;;;;;;;24.27;15.63;;;;;;;;;;5024620;28;20230;-76
2022/12/17 16:18:06;;;;;;;24.23;16.57;;;;;;;;;;5021129;28;20204;-77
2022/12/17 16:20:31;;;;;;;24.33;15.73;;;;;;;;;;5009742;28;20262;-77
2022/12/17 16:22:57;;;;;;;29.13;20.77;;;;;;;;;;5014838;28;20241;-77
2022/12/17 16:25:22;;;;;;;22.10;15.50;;;;;;;;;;5032628;28;20179;-77
2022/12/17 16:27:47;;;;;;;21.27;14.93;;;;;;;;;;5009804;28;20186;-76
2022/12/17 16:30:13;;;;;;;25.80;16.73;;;;;;;;;;5016108;28;20175;-77
2022/12/17 16:32:38;;;;;;;24.77;16.57;;;;;;;;;;5014325;28;20207;-77
2022/12/17 16:35:03;;;;;;;26.80;19.63;;;;;;;;;;5046671;28;20238;-77
2022/12/17 16:37:28;;;;;;;23.53;16.43;;;;;;;;;;5051874;28;20216;-77
2022/12/17 16:39:54;;;;;;;24.23;17.07;;;;;;;;;;5051797;28;20241;-77
2022/12/17 16:42:19;;;;;;;25.23;17.87;;;;;;;;;;5051209;28;20209;-77
2022/12/17 16:44:44;;;;;;;23.33;16.77;;;;;;;;;;5042476;28;20257;-77
2022/12/17 16:47:09;;;;;;;23.73;15.47;;;;;;;;;;5049700;28;20170;-76
2022/12/17 16:49:35;;;;;;;25.03;16.53;;;;;;;;;;5047366;28;20185;-77
2022/12/17 16:52:02;;;;;;;21.43;14.87;;;;;;;;;;5049704;28;20397;-77
2022/12/17 16:54:28;;;;;;;22.57;15.67;;;;;;;;;;5048629;28;20175;-77
2022/12/17 16:56:54;;;;;;;21.13;13.43;;;;;;;;;;5051062;28;20188;-76
2022/12/17 16:59:22;;;;;;;24.03;15.97;;;;;;;;;;5046343;28;20178;-77
2022/12/17 17:01:48;;;;;;;22.10;15.80;;;;;;;;;;5044732;28;20213;-77
2022/12/17 17:04:14;;;;;;;21.20;14.33;;;;;;;;;;5040437;28;20186;-77
2022/12/17 17:06:40;;;;;;;24.27;14.63;;;;;;;;;;5043188;28;20209;-77
2022/12/17 17:09:06;;;;;;;18.20;14.33;;;;;;;;;;5049558;28;20178;-77
2022/12/17 17:11:31;;;;;;;22.00;14.23;;;;;;;;;;5049692;28;20185;-76
2022/12/17 17:13:57;;;;;;;18.87;13.20;;;;;;;;;;5047476;28;20266;-77
2022/12/17 17:16:23;;;;;;;18.87;12.73;;;;;;;;;;5048034;28;20182;-76
2022/12/17 17:18:48;;;;;;;19.50;12.17;;;;;;;;;;5049922;28;20209;-77
2022/12/17 17:21:34;;;;;;;16.40;12.97;;;;;;;;;;5045941;28;20197;-77
2022/12/17 17:24:00;;;;;;;17.57;11.90;;;;;;;;;;5049290;28;20181;-76
2022/12/17 17:26:26;;;;;;;16.57;12.07;;;;;;;;;;5050983;28;20261;-76
2022/12/17 17:28:51;;;;;;;19.67;11.87;;;;;;;;;;5046405;28;20185;-76
2022/12/17 17:31:17;;;;;;;19.03;12.07;;;;;;;;;;5047943;28;20235;-76
2022/12/17 17:33:45;;;;;;;14.80;11.40;;;;;;;;;;5040228;28;20314;-76
2022/12/17 17:36:16;;;;;;;17.77;12.50;;;;;;;;;;5008443;28;20183;-77
2022/12/17 17:38:41;;;;;;;15.80;10.80;;;;;;;;;;5015415;28;20202;-77
2022/12/17 17:41:08;;;;;;;17.03;12.07;;;;;;;;;;5013192;28;20249;-76
2022/12/17 17:43:33;;;;;;;16.93;11.67;;;;;;;;;;5026925;28;20259;-76
2022/12/17 17:46:10;;;;;;;15.47;10.73;;;;;;;;;;5028496;28;20261;-76
2022/12/17 17:48:35;;;;;;;19.13;12.37;;;;;;;;;;5019807;28;20239;-76
2022/12/17 17:51:06;;;;;;;16.67;11.97;;;;;;;;;;5008485;28;20225;-76
2022/12/17 17:53:31;;;;;;;17.57;10.30;;;;;;;;;;5011470;28;20266;-76
2022/12/17 17:56:16;;;;;;;14.87;10.67;;;;;;;;;;5012104;28;20183;-76
2022/12/17 17:58:42;;;;;;;16.17;9.43;;;;;;;;;;5007559;28;20179;-76
2022/12/17 18:01:12;;;;;;;14.70;9.63;;;;;;;;;;5011642;28;20229;-77
2022/12/17 18:03:37;;;;;;;20.83;11.93;;;;;;;;;;5008866;28;20183;-76
2022/12/17 18:06:03;;;;;;;13.37;9.77;;;;;;;;;;5031727;28;20174;-76
2022/12/17 18:08:29;;;;;;;13.77;9.90;;;;;;;;;;5027310;28;20187;-76
2022/12/17 18:10:55;;;;;;;15.53;9.77;;;;;;;;;;5004117;28;20183;-76
2022/12/17 18:16:05;;;;;;;12.83;8.80;;;;;;;;;;5033407;28;20177;-76
2022/12/17 18:18:30;;;;;;;16.10;10.87;;;;;;;;;;5015556;28;20282;-76
2022/12/17 18:21:06;;;;;;;16.50;10.30;;;;;;;;;;5015324;28;20285;-76
2022/12/17 18:23:31;;;;;;;19.50;12.93;;;;;;;;;;5024385;28;20175;-77
2022/12/17 18:26:02;;;;;;;22.90;16.20;;;;;;;;;;5015069;28;20182;-76
2022/12/17 18:28:28;;;;;;;21.00;14.13;;;;;;;;;;5028780;28;20206;-76
2022/12/17 18:30:53;;;;;;;18.33;11.40;;;;;;;;;;5004450;28;20210;-76
2022/12/17 18:33:19;;;;;;;15.70;10.60;;;;;;;;;;5014387;28;20178;-77
2022/12/17 18:35:44;;;;;;;15.83;10.80;;;;;;;;;;5018656;28;20258;-76
2022/12/17 18:38:09;;;;;;;16.53;10.47;;;;;;;;;;5014227;28;20175;-77
2022/12/17 18:40:34;;;;;;;16.70;10.47;;;;;;;;;;5009764;28;20187;-76
2022/12/17 18:45:44;;;;;;;16.97;10.37;;;;;;;;;;5020442;28;20174;-76
2022/12/17 18:48:09;;;;;;;16.50;11.37;;;;;;;;;;5016598;28;20272;-76
2022/12/17 18:50:34;;;;;;;17.47;11.23;;;;;;;;;;5018307;28;20177;-76
2022/12/17 18:52:59;;;;;;;20.43;11.23;;;;;;;;;;5012558;28;20174;-76
2022/12/17 18:55:24;;;;;;;17.50;11.80;;;;;;;;;;5003599;28;20171;-76
2022/12/17 18:57:50;;;;;;;14.53;11.33;;;;;;;;;;5007848;28;20240;-76
2022/12/17 19:00:15;;;;;;;16.90;11.33;;;;;;;;;;5011864;28;20194;-76
2022/12/17 19:02:40;;;;;;;15.10;11.03;;;;;;;;;;5011221;28;20228;-76
2022/12/17 19:05:06;;;;;;;17.43;9.93;;;;;;;;;;5019434;28;20201;-77
2022/12/17 19:07:31;;;;;;;19.90;10.47;;;;;;;;;;5011724;28;20245;-76
2022/12/17 19:09:56;;;;;;;14.30;10.30;;;;;;;;;;5010528;28;20182;-76
2022/12/17 19:12:21;;;;;;;15.60;10.33;;;;;;;;;;5009376;28;20206;-76
2022/12/17 19:14:47;;;;;;;17.40;11.57;;;;;;;;;;5013897;28;20166;-77
2022/12/17 19:17:12;;;;;;;17.23;10.97;;;;;;;;;;5010036;28;20294;-76
2022/12/17 19:19:37;;;;;;;19.67;11.70;;;;;;;;;;5015435;28;20179;-77
2022/12/17 19:22:02;;;;;;;16.50;10.97;;;;;;;;;;5019049;28;20232;-76
2022/12/17 19:24:28;;;;;;;16.90;11.43;;;;;;;;;;5012563;28;20183;-76
2022/12/17 19:26:53;;;;;;;17.60;11.73;;;;;;;;;;5018215;28;20178;-76
2022/12/17 19:29:19;;;;;;;17.37;12.10;;;;;;;;;;5029895;28;20257;-76
2022/12/17 19:31:44;;;;;;;19.53;12.70;;;;;;;;;;5024942;28;20272;-76
2022/12/17 19:34:11;;;;;;;18.40;11.23;;;;;;;;;;5019245;28;20235;-77
2022/12/17 19:36:37;;;;;;;19.50;12.93;;;;;;;;;;5043199;28;20259;-77
2022/12/17 19:39:04;;;;;;;21.33;12.93;;;;;;;;;;5046963;28;20289;-76
2022/12/17 19:41:31;;;;;;;17.70;11.03;;;;;;;;;;5041669;28;20210;-76
2022/12/17 19:44:01;;;;;;;18.30;11.73;;;;;;;;;;5047804;28;20202;-76
2022/12/17 19:46:26;;;;;;;19.90;13.20;;;;;;;;;;5050928;28;20212;-76
2022/12/17 19:48:51;;;;;;;20.07;13.23;;;;;;;;;;5045899;28;20187;-76
2022/12/17 19:51:18;;;;;;;23.20;14.37;;;;;;;;;;5043174;28;20178;-76
2022/12/17 19:53:43;;;;;;;22.77;13.87;;;;;;;;;;5045572;28;20182;-76
2022/12/17 19:56:10;;;;;;;21.00;14.53;;;;;;;;;;5043197;28;20186;-76
2022/12/17 19:58:36;;;;;;;19.37;12.57;;;;;;;;;;5048256;28;20228;-76
2022/12/17 20:01:05;;;;;;;24.50;18.27;;;;;;;;;;5045356;28;20197;-76
2022/12/17 20:03:30;;;;;;;20.93;12.93;;;;;;;;;;5051445;28;20200;-76
2022/12/17 20:05:55;;;;;;;20.87;13.73;;;;;;;;;;5048161;28;20201;-76
2022/12/17 20:08:21;;;;;;;21.13;12.50;;;;;;;;;;5049602;28;20193;-76
2022/12/17 20:10:46;;;;;;;15.87;11.80;;;;;;;;;;5050427;28;20174;-76
2022/12/17 20:13:11;;;;;;;20.33;12.50;;;;;;;;;;5048679;28;20201;-76
2022/12/17 20:15:36;;;;;;;23.20;13.43;;;;;;;;;;5051984;28;20266;-76
2022/12/17 20:18:02;;;;;;;21.20;14.10;;;;;;;;;;5044629;28;20208;-76
2022/12/17 20:20:27;;;;;;;22.30;13.43;;;;;;;;;;5048452;28;20238;-76
2022/12/17 20:22:52;;;;;;;24.73;13.97;;;;;;;;;;5049295;28;20244;-76
2022/12/17 20:25:17;;;;;;;23.53;14.90;;;;;;;;;;5046693;28;20336;-76
2022/12/17 20:27:43;;;;;;;22.07;14.27;;;;;;;;;;5049007;28;20178;-76
2022/12/17 20:30:08;;;;;;;24.97;15.50;;;;;;;;;;5048348;28;20174;-76
2022/12/17 20:32:33;;;;;;;29.90;16.37;;;;;;;;;;5049722;28;20177;-76
2022/12/17 20:34:59;;;;;;;28.10;16.70;;;;;;;;;;5045092;28;20253;-76
2022/12/17 20:37:24;;;;;;;26.27;18.20;;;;;;;;;;5045177;28;20178;-76
2022/12/17 20:39:49;;;;;;;27.57;15.90;;;;;;;;;;5049891;28;20182;-76
2022/12/17 20:42:16;;;;;;;28.30;17.10;;;;;;;;;;5048545;28;20205;-77
2022/12/17 20:44:41;;;;;;;26.37;16.70;;;;;;;;;;5047597;28;20182;-76
2022/12/17 20:47:07;;;;;;;25.60;15.53;;;;;;;;;;5045946;28;20185;-77
2022/12/17 20:49:32;;;;;;;28.53;17.23;;;;;;;;;;5042617;28;20268;-76
2022/12/17 20:51:57;;;;;;;30.07;18.23;;;;;;;;;;5048627;28;20189;-76
2022/12/17 20:54:22;;;;;;;29.80;17.83;;;;;;;;;;5052188;28;20174;-76
2022/12/17 20:56:48;;;;;;;25.27;14.27;;;;;;;;;;5045955;28;20178;-77
2022/12/17 20:59:15;;;;;;;33.33;21.07;;;;;;;;;;5043612;28;20299;-76
2022/12/17 21:01:40;;;;;;;20.77;13.57;;;;;;;;;;5044650;28;20301;-76
2022/12/17 21:04:06;;;;;;;26.70;14.50;;;;;;;;;;5048613;28;20241;-76
2022/12/17 21:06:51;;;;;;;23.13;14.57;;;;;;;;;;5044195;28;20174;-76
2022/12/17 21:09:18;;;;;;;24.27;14.30;;;;;;;;;;5045760;28;20322;-76
2022/12/17 21:11:44;;;;;;;27.60;16.03;;;;;;;;;;5046586;28;20277;-76
2022/12/17 21:14:11;;;;;;;26.43;15.83;;;;;;;;;;5041597;28;20273;-77
2022/12/17 21:16:37;;;;;;;21.67;13.53;;;;;;;;;;5040689;28;20175;-76
2022/12/17 21:19:03;;;;;;;21.77;13.80;;;;;;;;;;5043996;28;20244;-76
2022/12/17 21:21:29;;;;;;;21.23;14.33;;;;;;;;;;5045448;28;20208;-76
2022/12/17 21:23:55;;;;;;;26.00;14.77;;;;;;;;;;5050048;28;20175;-76
2022/12/17 21:26:21;;;;;;;27.30;16.20;;;;;;;;;;5047752;28;20181;-76
2022/12/17 21:28:48;;;;;;;21.47;13.43;;;;;;;;;;5047937;28;20186;-76
2022/12/17 21:31:24;;;;;;;22.70;14.57;;;;;;;;;;5046801;28;20201;-76
2022/12/17 21:33:50;;;;;;;18.87;12.33;;;;;;;;;;5053897;28;20248;-76
2022/12/17 21:36:16;;;;;;;24.13;15.73;;;;;;;;;;5045230;28;20209;-76
2022/12/17 21:38:42;;;;;;;24.67;15.73;;;;;;;;;;5049805;28;20277;-76
2022/12/17 21:41:09;;;;;;;22.27;14.30;;;;;;;;;;5047739;28;20221;-76
2022/12/17 21:43:35;;;;;;;25.27;15.03;;;;;;;;;;5048961;28;20166;-76
2022/12/17 21:46:01;;;;;;;20.77;13.83;;;;;;;;;;5046709;28;20272;-76
2022/12/17 21:48:27;;;;;;;28.70;16.43;;;;;;;;;;5043297;28;20209;-76
2022/12/17 21:50:52;;;;;;;26.00;17.70;;;;;;;;;;5050982;28;20205;-76
2022/12/17 21:53:17;;;;;;;24.03;15.83;;;;;;;;;;5049677;28;20177;-76
2022/12/17 21:55:43;;;;;;;24.67;14.30;;;;;;;;;;5052871;28;20173;-76
2022/12/17 21:58:08;;;;;;;23.30;16.17;;;;;;;;;;5047636;28;20170;-76
2022/12/17 22:00:33;;;;;;;22.50;15.60;;;;;;;;;;5043724;28;20185;-77
2022/12/17 22:02:58;;;;;;;21.13;15.23;;;;;;;;;;5046726;28;20292;-76
2022/12/17 22:05:24;;;;;;;23.60;13.77;;;;;;;;;;5045804;28;20182;-76
2022/12/17 22:07:49;;;;;;;25.23;15.00;;;;;;;;;;5044532;28;20175;-76
2022/12/17 22:10:14;;;;;;;27.07;15.30;;;;;;;;;;5046133;28;20170;-76
2022/12/17 22:15:23;;;;;;;23.83;15.33;;;;;;;;;;5044094;28;20181;-76
2022/12/17 22:17:48;;;;;;;23.60;12.93;;;;;;;;;;5042608;28;20198;-76
2022/12/17 22:20:16;;;;;;;23.67;14.30;;;;;;;;;;5043744;28;20184;-77
2022/12/17 22:22:42;;;;;;;22.57;12.13;;;;;;;;;;5047675;28;20195;-76
2022/12/17 22:25:08;;;;;;;23.37;15.03;;;;;;;;;;5046736;28;20192;-76
2022/12/17 22:27:33;;;;;;;24.53;15.50;;;;;;;;;;5043072;28;20179;-76
2022/12/17 22:35:46;;;;;;;25.00;15.93;;;;;;;;;;5054389;28;20245;-76
2022/12/17 22:38:12;;;;;;;27.77;15.20;;;;;;;;;;5048917;28;20251;-76
2022/12/17 22:40:37;;;;;;;24.23;15.07;;;;;;;;;;5027373;28;20174;-76
2022/12/17 22:45:47;;;;;;;25.03;14.47;;;;;;;;;;5049767;28;20177;-76
2022/12/17 22:48:12;;;;;;;27.20;17.50;;;;;;;;;;5039902;28;20178;-76
2022/12/17 22:50:38;;;;;;;23.90;13.87;;;;;;;;;;5036677;28;20170;-76
2022/12/17 22:53:03;;;;;;;21.30;13.83;;;;;;;;;;5036333;28;20173;-76
2022/12/17 22:55:29;;;;;;;20.10;13.90;;;;;;;;;;5024689;28;20185;-76
2022/12/17 22:57:54;;;;;;;23.77;13.73;;;;;;;;;;5043139;28;20268;-76
2022/12/17 23:00:21;;;;;;;21.50;12.57;;;;;;;;;;5034567;28;20185;-76
2022/12/17 23:02:46;;;;;;;25.50;15.83;;;;;;;;;;5037263;28;20202;-76
2022/12/17 23:05:11;;;;;;;25.80;14.80;;;;;;;;;;5038371;28;20196;-76
2022/12/17 23:07:37;;;;;;;22.13;12.73;;;;;;;;;;5025957;28;20187;-76
2022/12/17 23:10:03;;;;;;;24.20;13.97;;;;;;;;;;5045329;28;20190;-76
2022/12/17 23:15:12;;;;;;;24.90;13.57;;;;;;;;;;5048891;28;20300;-76
2022/12/17 23:17:37;;;;;;;20.47;14.03;;;;;;;;;;5019709;28;20289;-76
2022/12/17 23:20:02;;;;;;;23.57;12.63;;;;;;;;;;5029866;28;20231;-76
2022/12/17 23:22:28;;;;;;;21.70;13.13;;;;;;;;;;5021970;28;20194;-76
2022/12/17 23:24:53;;;;;;;20.77;12.93;;;;;;;;;;5027786;28;20232;-76
2022/12/17 23:27:19;;;;;;;20.33;12.70;;;;;;;;;;5023038;28;20205;-76
2022/12/17 23:29:44;;;;;;;25.40;12.90;;;;;;;;;;5040753;28;20194;-76
2022/12/17 23:32:09;;;;;;;26.73;13.80;;;;;;;;;;5026993;28;20189;-76
2022/12/17 23:34:34;;;;;;;23.27;13.47;;;;;;;;;;5021188;28;20321;-76
2022/12/17 23:36:59;;;;;;;24.60;13.93;;;;;;;;;;5024414;28;20185;-76
2022/12/17 23:39:25;;;;;;;24.57;14.70;;;;;;;;;;5020755;28;20249;-76
2022/12/17 23:41:52;;;;;;;17.87;12.40;;;;;;;;;;5025707;28;20198;-76
2022/12/17 23:44:17;;;;;;;21.73;14.40;;;;;;;;;;5011190;28;20193;-76
2022/12/17 23:46:42;;;;;;;21.77;12.60;;;;;;;;;;5017384;28;20178;-76
2022/12/17 23:49:08;;;;;;;19.60;12.30;;;;;;;;;;5004021;28;20241;-76
2022/12/17 23:51:34;;;;;;;21.97;13.90;;;;;;;;;;5009851;28;20236;-76
2022/12/17 23:53:59;;;;;;;20.30;12.57;;;;;;;;;;5004948;28;20179;-76
2022/12/17 23:56:26;;;;;;;21.87;13.17;;;;;;;;;;5008982;28;20183;-76
2022/12/17 23:58:55;;;;;;;24.03;14.33;;;;;;;;;;5020127;28;20268;-76
